Keumyang Family — DSNO8 — position and weather

sailwx.info

Track history (hours):
 
Tides and Currents Weather Stations Pressure Air Temp Water Temp Dewpoint Dewpoint Depression Visibility Wind Speed Wind Dir Waves Ship Positions

Keumyang Family

Last reported at 2014-Aug-20 14:26 UTC. Time now 2014-Aug-20 14:40 UTC.
Position N 34°47' E 139°14'.

Length 95 m; draft 3.9 m.

Type: Cargo ship. MMSI: 441416000.

Date/timePositionNaut miles runAvg speedWind from/ knotsBaromVisibWave heightAir tempDewpointWater temp
2014-Aug-20 14:26N 34°47' E 139°14'15 7.3
2014-Aug-20 12:21N 34°56' E 139°28'6 7.3
2014-Aug-20 11:30N 35°01' E 139°34'7 7.6
2014-Aug-20 10:33N 35°05' E 139°41'8 8.1
2014-Aug-20 09:33N 35°12' E 139°46'8 8.2
2014-Aug-20 08:33N 35°20' E 139°43'8 8.2
2014-Aug-20 07:33N 35°27' E 139°47'4 3.4
2014-Aug-20 06:31N 35°31' E 139°45'0 0.0
2014-Aug-20 05:31N 35°31' E 139°45'0 0.0
2014-Aug-20 04:31N 35°31' E 139°45'0 0.0
2014-Aug-20 03:31N 35°31' E 139°45'0 0.0
2014-Aug-20 02:28N 35°31' E 139°45'0 0.0
2014-Aug-20 01:28N 35°31' E 139°45'0 0.0
2014-Aug-20 00:28N 35°31' E 139°45'0 0.0
2014-Aug-19 23:31N 35°31' E 139°45'2 2.6
2014-Aug-19 22:33N 35°29' E 139°42'2 2.2
2014-Aug-19 21:33N 35°27' E 139°42'0 0.0
2014-Aug-19 20:33N 35°27' E 139°42'0 0.0
2014-Aug-19 19:33N 35°27' E 139°42'0 0.0
2014-Aug-19 18:33N 35°27' E 139°42'0 0.0
2014-Aug-19 17:33N 35°27' E 139°42'0 0.0
2014-Aug-19 16:33N 35°27' E 139°42'0 0.0
2014-Aug-19 15:33N 35°27' E 139°42'0 0.0
2014-Aug-19 14:33N 35°27' E 139°42'0 0.1
2014-Aug-19 13:33N 35°27' E 139°42'0 0.0
2014-Aug-19 12:33N 35°27' E 139°42'0 0.0
2014-Aug-19 11:33N 35°27' E 139°42'0 0.0
2014-Aug-19 10:33N 35°27' E 139°42'0 0.0
2014-Aug-19 09:33N 35°27' E 139°42'0 0.0
2014-Aug-19 08:33N 35°27' E 139°42'0 0.0
2014-Aug-19 07:33N 35°27' E 139°42'0 0.0
2014-Aug-19 06:34N 35°27' E 139°42'0 0.0
2014-Aug-19 05:33N 35°27' E 139°42'0 0.0
2014-Aug-19 04:33N 35°27' E 139°42'0 0.1
2014-Aug-19 03:33N 35°27' E 139°42'0 0.0
2014-Aug-19 02:33N 35°27' E 139°42'0 0.0
2014-Aug-19 01:33N 35°27' E 139°42'0 0.0
2014-Aug-19 00:33N 35°27' E 139°42'0 0.0
2014-Aug-18 23:32N 35°27' E 139°42'0 0.0
2014-Aug-18 22:33N 35°27' E 139°42'0 0.0
2014-Aug-18 21:32N 35°27' E 139°42'0 0.0
2014-Aug-18 20:33N 35°27' E 139°42'0 0.0
2014-Aug-18 19:24N 35°27' E 139°42'0 0.0
2014-Aug-18 18:28N 35°27' E 139°42'0 0.0
2014-Aug-18 17:33N 35°27' E 139°42'0 0.0
2014-Aug-18 16:33N 35°27' E 139°42'0 0.0
2014-Aug-18 15:28N 35°27' E 139°42'0 0.0
2014-Aug-18 14:33N 35°27' E 139°42'0 0.0
2014-Aug-18 13:32N 35°27' E 139°42'0 0.0
2014-Aug-18 12:26N 35°27' E 139°42'0 0.0
2014-Aug-18 11:30N 35°27' E 139°42'0 0.0
2014-Aug-18 10:28N 35°27' E 139°42'0 0.0
2014-Aug-18 09:32N 35°27' E 139°42'2 2.2
2014-Aug-18 08:33N 35°25' E 139°42'4 3.5
2014-Aug-18 07:32N 35°23' E 139°38'0 0.0
2014-Aug-18 06:32N 35°23' E 139°38'0 0.0
2014-Aug-18 05:32N 35°23' E 139°38'0 0.0
2014-Aug-18 04:32N 35°23' E 139°38'0 0.0
2014-Aug-18 03:29N 35°23' E 139°38'0 0.0
2014-Aug-18 02:33N 35°23' E 139°38'1 1.1
2014-Aug-18 01:33N 35°24' E 139°40'0 0.1
2014-Aug-18 00:33N 35°24' E 139°40'0 0.0
2014-Aug-17 18:33N 35°24' E 139°40'0 0.0
2014-Aug-17 17:33N 35°24' E 139°40'0 0.0
2014-Aug-17 16:33N 35°24' E 139°40'0 0.0
2014-Aug-17 15:33N 35°24' E 139°40'0 0.0
2014-Aug-17 14:33N 35°24' E 139°40'0 0.0
2014-Aug-17 13:33N 35°24' E 139°40'0 0.0
2014-Aug-17 12:33N 35°24' E 139°40'0 0.0
2014-Aug-17 11:33N 35°24' E 139°40'0 0.0
2014-Aug-17 10:33N 35°24' E 139°40'0 0.0
2014-Aug-17 09:33N 35°24' E 139°40'0 0.0
2014-Aug-17 08:33N 35°24' E 139°40'0 0.0
2014-Aug-17 07:34N 35°24' E 139°40'0 0.0
2014-Aug-17 06:34N 35°24' E 139°40'0 0.0
2014-Aug-17 05:34N 35°24' E 139°40'0 0.0
2014-Aug-17 04:33N 35°24' E 139°40'0 0.0
2014-Aug-17 03:33N 35°24' E 139°40'0 0.0
2014-Aug-17 02:33N 35°24' E 139°40'0 0.0
2014-Aug-17 01:33N 35°24' E 139°40'0 0.0
2014-Aug-17 00:33N 35°24' E 139°40'0 0.0
2014-Aug-16 23:33N 35°24' E 139°40'0 0.0
2014-Aug-16 22:33N 35°24' E 139°40'0 0.0
2014-Aug-16 21:33N 35°24' E 139°40'0 0.0
2014-Aug-16 20:33N 35°24' E 139°40'0 0.0
2014-Aug-16 19:34N 35°24' E 139°40'0 0.0
2014-Aug-16 18:33N 35°24' E 139°40'0 0.0
2014-Aug-16 17:33N 35°24' E 139°40'0 0.0
2014-Aug-16 16:33N 35°24' E 139°40'0 0.0
2014-Aug-16 15:33N 35°24' E 139°40'0 0.0
2014-Aug-16 14:33N 35°24' E 139°40'0 0.0
2014-Aug-16 13:33N 35°24' E 139°40'0 0.0
2014-Aug-16 12:33N 35°24' E 139°40'0 0.0
2014-Aug-16 11:33N 35°24' E 139°40'0 0.0
2014-Aug-16 10:33N 35°24' E 139°40'0 0.0
2014-Aug-16 09:33N 35°24' E 139°40'0 0.0
2014-Aug-16 08:33N 35°24' E 139°40'0 0.0
2014-Aug-16 07:32N 35°23' E 139°40'1 1.4
2014-Aug-16 06:34N 35°23' E 139°41'8 8.0
2014-Aug-16 05:34N 35°16' E 139°46'8 8.4
2014-Aug-16 04:34N 35°08' E 139°46'9 8.5
2014-Aug-16 03:33N 35°02' E 139°38'235 6.7
2014-Aug-14 16:23N 34°13' E 134°59'19 6.5
2014-Aug-14 13:30N 34°31' E 135°02'5 5.0
2014-Aug-14 12:33N 34°36' E 135°03'4 3.9
2014-Aug-14 11:31N 34°37' E 134°58'  
Track history (hours):
 
Tides and Currents Weather Stations Pressure Air Temp Water Temp Dewpoint Dewpoint Depression Visibility Wind Speed Wind Dir Waves Ship Positions

Keumyang Family

Last reported at 2014-Aug-20 14:26 UTC. Time now 2014-Aug-20 14:40 UTC.
Position N 34°47' E 139°14'.

Length 95 m; draft 3.9 m.

Type: Cargo ship. MMSI: 441416000.

Date/timePositionNaut miles runAvg speedWind from/ knotsBaromVisibWave heightAir tempDewpointWater temp
2014-Aug-20 14:26N 34°47' E 139°14'15 7.3
2014-Aug-20 12:21N 34°56' E 139°28'6 7.3
2014-Aug-20 11:30N 35°01' E 139°34'7 7.6
2014-Aug-20 10:33N 35°05' E 139°41'8 8.1
2014-Aug-20 09:33N 35°12' E 139°46'8 8.2
2014-Aug-20 08:33N 35°20' E 139°43'8 8.2
2014-Aug-20 07:33N 35°27' E 139°47'4 3.4
2014-Aug-20 06:31N 35°31' E 139°45'0 0.0
2014-Aug-20 05:31N 35°31' E 139°45'0 0.0
2014-Aug-20 04:31N 35°31' E 139°45'0 0.0
2014-Aug-20 03:31N 35°31' E 139°45'0 0.0
2014-Aug-20 02:28N 35°31' E 139°45'0 0.0
2014-Aug-20 01:28N 35°31' E 139°45'0 0.0
2014-Aug-20 00:28N 35°31' E 139°45'0 0.0
2014-Aug-19 23:31N 35°31' E 139°45'2 2.6
2014-Aug-19 22:33N 35°29' E 139°42'2 2.2
2014-Aug-19 21:33N 35°27' E 139°42'0 0.0
2014-Aug-19 20:33N 35°27' E 139°42'0 0.0
2014-Aug-19 19:33N 35°27' E 139°42'0 0.0
2014-Aug-19 18:33N 35°27' E 139°42'0 0.0
2014-Aug-19 17:33N 35°27' E 139°42'0 0.0
2014-Aug-19 16:33N 35°27' E 139°42'0 0.0
2014-Aug-19 15:33N 35°27' E 139°42'0 0.0
2014-Aug-19 14:33N 35°27' E 139°42'0 0.1
2014-Aug-19 13:33N 35°27' E 139°42'0 0.0
2014-Aug-19 12:33N 35°27' E 139°42'0 0.0
2014-Aug-19 11:33N 35°27' E 139°42'0 0.0
2014-Aug-19 10:33N 35°27' E 139°42'0 0.0
2014-Aug-19 09:33N 35°27' E 139°42'0 0.0
2014-Aug-19 08:33N 35°27' E 139°42'0 0.0
2014-Aug-19 07:33N 35°27' E 139°42'0 0.0
2014-Aug-19 06:34N 35°27' E 139°42'0 0.0
2014-Aug-19 05:33N 35°27' E 139°42'0 0.0
2014-Aug-19 04:33N 35°27' E 139°42'0 0.1
2014-Aug-19 03:33N 35°27' E 139°42'0 0.0
2014-Aug-19 02:33N 35°27' E 139°42'0 0.0
2014-Aug-19 01:33N 35°27' E 139°42'0 0.0
2014-Aug-19 00:33N 35°27' E 139°42'0 0.0
2014-Aug-18 23:32N 35°27' E 139°42'0 0.0
2014-Aug-18 22:33N 35°27' E 139°42'0 0.0
2014-Aug-18 21:32N 35°27' E 139°42'0 0.0
2014-Aug-18 20:33N 35°27' E 139°42'0 0.0
2014-Aug-18 19:24N 35°27' E 139°42'0 0.0
2014-Aug-18 18:28N 35°27' E 139°42'0 0.0
2014-Aug-18 17:33N 35°27' E 139°42'0 0.0
2014-Aug-18 16:33N 35°27' E 139°42'0 0.0
2014-Aug-18 15:28N 35°27' E 139°42'0 0.0
2014-Aug-18 14:33N 35°27' E 139°42'0 0.0
2014-Aug-18 13:32N 35°27' E 139°42'0 0.0
2014-Aug-18 12:26N 35°27' E 139°42'0 0.0
2014-Aug-18 11:30N 35°27' E 139°42'0 0.0
2014-Aug-18 10:28N 35°27' E 139°42'0 0.0
2014-Aug-18 09:32N 35°27' E 139°42'2 2.2
2014-Aug-18 08:33N 35°25' E 139°42'4 3.5
2014-Aug-18 07:32N 35°23' E 139°38'0 0.0
2014-Aug-18 06:32N 35°23' E 139°38'0 0.0
2014-Aug-18 05:32N 35°23' E 139°38'0 0.0
2014-Aug-18 04:32N 35°23' E 139°38'0 0.0
2014-Aug-18 03:29N 35°23' E 139°38'0 0.0
2014-Aug-18 02:33N 35°23' E 139°38'1 1.1
2014-Aug-18 01:33N 35°24' E 139°40'0 0.1
2014-Aug-18 00:33N 35°24' E 139°40'0 0.0
2014-Aug-17 18:33N 35°24' E 139°40'0 0.0
2014-Aug-17 17:33N 35°24' E 139°40'0 0.0
2014-Aug-17 16:33N 35°24' E 139°40'0 0.0
2014-Aug-17 15:33N 35°24' E 139°40'0 0.0
2014-Aug-17 14:33N 35°24' E 139°40'0 0.0
2014-Aug-17 13:33N 35°24' E 139°40'0 0.0
2014-Aug-17 12:33N 35°24' E 139°40'0 0.0
2014-Aug-17 11:33N 35°24' E 139°40'0 0.0
2014-Aug-17 10:33N 35°24' E 139°40'0 0.0
2014-Aug-17 09:33N 35°24' E 139°40'0 0.0
2014-Aug-17 08:33N 35°24' E 139°40'0 0.0
2014-Aug-17 07:34N 35°24' E 139°40'0 0.0
2014-Aug-17 06:34N 35°24' E 139°40'0 0.0
2014-Aug-17 05:34N 35°24' E 139°40'0 0.0
2014-Aug-17 04:33N 35°24' E 139°40'0 0.0
2014-Aug-17 03:33N 35°24' E 139°40'0 0.0
2014-Aug-17 02:33N 35°24' E 139°40'0 0.0
2014-Aug-17 01:33N 35°24' E 139°40'0 0.0
2014-Aug-17 00:33N 35°24' E 139°40'0 0.0
2014-Aug-16 23:33N 35°24' E 139°40'0 0.0
2014-Aug-16 22:33N 35°24' E 139°40'0 0.0
2014-Aug-16 21:33N 35°24' E 139°40'0 0.0
2014-Aug-16 20:33N 35°24' E 139°40'0 0.0
2014-Aug-16 19:34N 35°24' E 139°40'0 0.0
2014-Aug-16 18:33N 35°24' E 139°40'0 0.0
2014-Aug-16 17:33N 35°24' E 139°40'0 0.0
2014-Aug-16 16:33N 35°24' E 139°40'0 0.0
2014-Aug-16 15:33N 35°24' E 139°40'0 0.0
2014-Aug-16 14:33N 35°24' E 139°40'0 0.0
2014-Aug-16 13:33N 35°24' E 139°40'0 0.0
2014-Aug-16 12:33N 35°24' E 139°40'0 0.0
2014-Aug-16 11:33N 35°24' E 139°40'0 0.0
2014-Aug-16 10:33N 35°24' E 139°40'0 0.0
2014-Aug-16 09:33N 35°24' E 139°40'0 0.0
2014-Aug-16 08:33N 35°24' E 139°40'0 0.0
2014-Aug-16 07:32N 35°23' E 139°40'1 1.4
2014-Aug-16 06:34N 35°23' E 139°41'8 8.0
2014-Aug-16 05:34N 35°16' E 139°46'8 8.4
2014-Aug-16 04:34N 35°08' E 139°46'9 8.5
2014-Aug-16 03:33N 35°02' E 139°38'235 6.7
2014-Aug-14 16:23N 34°13' E 134°59'19 6.5
2014-Aug-14 13:30N 34°31' E 135°02'5 5.0
2014-Aug-14 12:33N 34°36' E 135°03'4 3.9
2014-Aug-14 11:31N 34°37' E 134°58'  

Dump ship's entire track history